Time;durP1;ratioP1;P1;durP2;ratioP2;P2;SDS_P1;SDS_P2;PMS_P1;PMS_P2;Temp;Humidity;BMP_temperature;BMP_pressure;BME280_temperature;BME280_humidity;BME280_pressure;Samples;Min_cycle;Max_cycle;Signal;HPM_P1;HPM_P2
2023/05/13 00:04:23;;;;;;;2.33;0.60;;;;;;;;;;21002939;28;20267;-81
2023/05/13 00:14:24;;;;;;;2.17;0.90;;;;;;;;;;20975707;28;20263;-80
2023/05/13 00:24:26;;;;;;;0.80;0.60;;;;;;;;;;20993582;28;20240;-80
2023/05/13 00:34:28;;;;;;;0.50;0.50;;;;;;;;;;20992625;28;20853;-80
2023/05/13 00:44:30;;;;;;;1.27;0.60;;;;;;;;;;21024035;28;20709;-80
2023/05/13 00:54:32;;;;;;;1.27;0.97;;;;;;;;;;21074956;28;20262;-79
2023/05/13 01:04:40;;;;;;;1.10;0.73;;;;;;;;;;21039922;28;20204;-81
2023/05/13 01:14:48;;;;;;;1.20;0.80;;;;;;;;;;21056511;28;20220;-83
2023/05/13 01:24:50;;;;;;;1.70;0.97;;;;;;;;;;21061152;28;20540;-82
2023/05/13 01:34:54;;;;;;;1.57;1.00;;;;;;;;;;21055352;28;20258;-80
2023/05/13 01:44:57;;;;;;;1.10;0.80;;;;;;;;;;21071123;28;20217;-80
2023/05/13 01:54:59;;;;;;;1.67;1.03;;;;;;;;;;21088997;28;20863;-81
2023/05/13 02:05:01;;;;;;;1.63;1.10;;;;;;;;;;21070403;28;20228;-81
2023/05/13 02:15:02;;;;;;;2.37;1.57;;;;;;;;;;21071592;28;20717;-81
2023/05/13 02:25:06;;;;;;;1.60;1.00;;;;;;;;;;21056555;28;20217;-81
2023/05/13 02:35:08;;;;;;;3.27;1.10;;;;;;;;;;21065628;28;20678;-81
2023/05/13 02:45:10;;;;;;;2.27;1.30;;;;;;;;;;21084520;28;20293;-81
2023/05/13 02:55:15;;;;;;;1.87;1.30;;;;;;;;;;21074317;28;20270;-80
2023/05/13 03:05:17;;;;;;;1.50;1.13;;;;;;;;;;21079950;28;20254;-79
2023/05/13 03:15:19;;;;;;;1.30;0.93;;;;;;;;;;21082084;28;20297;-79
2023/05/13 03:25:21;;;;;;;1.07;0.90;;;;;;;;;;21046549;28;20217;-79
2023/05/13 03:35:27;;;;;;;1.40;1.07;;;;;;;;;;21061470;28;20232;-79
2023/05/13 03:45:30;;;;;;;2.23;0.90;;;;;;;;;;21043343;28;20232;-79
2023/05/13 03:55:37;;;;;;;1.63;1.30;;;;;;;;;;21018677;28;20233;-79
2023/05/13 04:05:39;;;;;;;1.90;1.30;;;;;;;;;;20943393;28;20630;-79
2023/05/13 04:15:41;;;;;;;1.47;1.07;;;;;;;;;;20905646;28;20751;-79
2023/05/13 04:25:43;;;;;;;2.47;1.23;;;;;;;;;;20927586;28;20276;-79
2023/05/13 04:35:45;;;;;;;1.63;1.10;;;;;;;;;;20929263;28;20229;-79
2023/05/13 04:45:50;;;;;;;1.57;1.00;;;;;;;;;;20975861;28;20271;-80
2023/05/13 04:55:59;;;;;;;1.63;1.17;;;;;;;;;;20991478;28;20256;-79
2023/05/13 05:06:02;;;;;;;1.57;1.17;;;;;;;;;;20972201;28;20223;-80
2023/05/13 05:16:04;;;;;;;2.00;1.10;;;;;;;;;;20960408;28;20256;-80
2023/05/13 05:26:06;;;;;;;1.43;0.90;;;;;;;;;;20947550;28;20325;-80
2023/05/13 05:36:08;;;;;;;1.50;0.90;;;;;;;;;;20972487;28;20268;-80
2023/05/13 05:46:11;;;;;;;2.27;1.20;;;;;;;;;;20993997;28;20659;-80
2023/05/13 05:56:13;;;;;;;1.67;1.30;;;;;;;;;;20954100;28;20250;-79
2023/05/13 06:06:15;;;;;;;1.10;1.00;;;;;;;;;;20938527;28;20243;-81
2023/05/13 06:16:16;;;;;;;1.63;1.10;;;;;;;;;;20978680;28;20768;-78
2023/05/13 06:26:18;;;;;;;1.53;0.97;;;;;;;;;;21003200;28;20218;-79
2023/05/13 06:36:20;;;;;;;1.43;1.10;;;;;;;;;;20968164;28;20283;-79
2023/05/13 06:46:22;;;;;;;1.43;1.10;;;;;;;;;;20983454;28;20244;-78
2023/05/13 06:56:24;;;;;;;2.60;0.80;;;;;;;;;;21001452;28;20747;-81
2023/05/13 07:06:26;;;;;;;1.20;0.80;;;;;;;;;;21000771;28;20213;-80
2023/05/13 07:16:28;;;;;;;1.20;0.90;;;;;;;;;;20955334;28;20241;-80
2023/05/13 07:26:30;;;;;;;2.30;1.00;;;;;;;;;;20956976;28;20221;-81
2023/05/13 07:36:31;;;;;;;0.90;0.60;;;;;;;;;;20910344;28;20244;-81
2023/05/13 07:46:33;;;;;;;1.20;0.90;;;;;;;;;;21009633;28;20560;-80
2023/05/13 07:56:38;;;;;;;1.13;0.70;;;;;;;;;;20985888;28;20714;-81
2023/05/13 08:06:40;;;;;;;1.07;0.70;;;;;;;;;;20945938;28;20260;-80
2023/05/13 08:16:44;;;;;;;1.77;0.70;;;;;;;;;;20992764;28;20255;-81
2023/05/13 08:26:46;;;;;;;1.00;0.70;;;;;;;;;;21019688;28;20225;-78
2023/05/13 08:36:48;;;;;;;1.00;0.70;;;;;;;;;;20990106;28;20607;-79
2023/05/13 08:46:53;;;;;;;1.20;0.73;;;;;;;;;;20959994;28;20275;-79
2023/05/13 08:56:55;;;;;;;1.57;0.93;;;;;;;;;;20989347;28;20237;-79
2023/05/13 09:06:57;;;;;;;1.00;0.70;;;17.60;99.90;;;;;;20989641;28;20221;-79
2023/05/13 09:17:00;;;;;;;1.10;0.70;;;;;;;;;;20972907;28;20229;-80
2023/05/13 09:27:02;;;;;;;1.80;0.80;;;;;;;;;;20988835;28;20260;-80
2023/05/13 09:37:06;;;;;;;1.50;0.93;;;18.30;99.90;;;;;;20938693;28;20233;-81
2023/05/13 09:47:13;;;;;;;1.20;0.90;;;;;;;;;;21009698;28;20275;-80
2023/05/13 09:57:15;;;;;;;2.23;1.10;;;;;;;;;;20914805;28;20222;-80
2023/05/13 10:07:24;;;;;;;1.57;1.10;;;;;;;;;;20982970;28;20763;-80
2023/05/13 10:17:26;;;;;;;2.60;1.10;;;;;;;;;;20985693;28;20233;-80
2023/05/13 10:27:29;;;;;;;1.77;1.30;;;;;;;;;;21004880;28;20270;-80
2023/05/13 10:37:34;;;;;;;3.37;1.00;;;;;;;;;;20997557;28;20578;-80
2023/05/13 10:47:36;;;;;;;2.00;0.67;;;;;;;;;;21004609;28;20283;-80
2023/05/13 10:57:38;;;;;;;0.90;0.60;;;;;;;;;;20942854;28;20241;-81
2023/05/13 11:07:40;;;;;;;0.40;0.40;;;;;;;;;;20981247;28;20288;-81
2023/05/13 11:17:45;;;;;;;1.10;0.70;;;;;;;;;;21024700;28;20238;-81
2023/05/13 11:27:47;;;;;;;6.90;1.43;;;;;;;;;;20965222;28;20233;-82
2023/05/13 11:37:54;;;;;;;1.00;0.70;;;;;;;;;;21019352;28;20282;-81
2023/05/13 11:47:56;;;;;;;1.07;0.60;;;;;;;;;;20997679;28;20235;-81
2023/05/13 11:57:58;;;;;;;0.50;0.50;;;;;;;;;;21014244;28;20233;-81
2023/05/13 12:08:00;;;;;;;0.63;0.50;;;;;;;;;;20968097;28;20227;-81
2023/05/13 12:18:02;;;;;;;0.63;0.50;;;;;;;;;;21045562;28;20237;-81
2023/05/13 12:28:08;;;;;;;1.47;1.03;;;;;;;;;;21043208;28;20251;-82
2023/05/13 12:38:14;;;;;;;2.13;0.90;;;;;;;;;;20945996;28;20229;-82
2023/05/13 12:48:15;;;;;;;0.80;0.60;;;;;;;;;;21074685;28;20220;-81
2023/05/13 12:58:17;;;;;;;1.07;0.70;;;;;;;;;;20986312;28;20229;-81
2023/05/13 13:08:20;;;;;;;1.50;0.70;;;;;;;;;;20994766;28;20212;-82
2023/05/13 13:18:23;;;;;;;1.00;0.50;;;;;;;;;;20975446;28;20291;-81
2023/05/13 13:28:25;;;;;;;0.80;0.50;;;;;;;;;;20993284;28;20230;-81
2023/05/13 13:38:27;;;;;;;0.70;0.50;;;;;;;;;;20966064;28;20646;-82
2023/05/13 13:48:29;;;;;;;1.20;0.83;;;;;;;;;;20983605;28;20222;-81
2023/05/13 13:58:31;;;;;;;0.80;0.60;;;;;;;;;;20970296;28;20230;-81
2023/05/13 14:08:32;;;;;;;0.73;0.60;;;;;;;;;;21050234;27;20279;-80
2023/05/13 14:18:37;;;;;;;0.67;0.50;;;;;;;;;;21043049;28;20214;-81
2023/05/13 14:28:53;;;;;;;0.47;0.40;;;;;;;;;;20963325;28;20218;-82
2023/05/13 14:39:11;;;;;;;1.00;0.67;;;;;;;;;;20973349;28;20812;-84
2023/05/13 14:49:19;;;;;;;2.17;0.90;;;;;;;;;;20950901;28;20245;-84
2023/05/13 14:59:28;;;;;;;2.73;0.73;;;;;;;;;;21047029;28;20234;-85
2023/05/13 15:09:55;;;;;;;1.30;0.80;;;;;;;;;;21006652;28;20762;-86
2023/05/13 15:20:17;;;;;;;1.63;0.90;;;;;;;;;;20972854;28;20230;-85
2023/05/13 15:30:39;;;;;;;1.30;0.80;;;;;;;;;;21023077;28;20278;-84
2023/05/13 15:41:03;;;;;;;1.17;0.70;;;;;;;;;;20974148;28;20230;-84
2023/05/13 15:51:14;;;;;;;1.77;0.60;;;;;;;;;;20988797;28;20221;-83
2023/05/13 16:01:16;;;;;;;1.47;0.80;;;;;;;;;;20998865;28;20288;-83
2023/05/13 16:11:26;;;;;;;1.37;0.97;;;;;;;;;;20977135;28;20687;-83
2023/05/13 16:21:31;;;;;;;1.27;0.80;;;;;;;;;;20935407;28;20721;-83
2023/05/13 16:31:33;;;;;;;1.40;0.80;;;;;;;;;;20982615;28;20194;-84
2023/05/13 16:41:39;;;;;;;1.13;0.70;;;;;;;;;;21039368;28;20240;-84
2023/05/13 16:51:43;;;;;;;1.17;0.90;;;;;;;;;;20935453;28;20237;-83
2023/05/13 17:01:46;;;;;;;2.27;1.03;;;;;;;;;;21025605;28;20241;-83
2023/05/13 17:11:48;;;;;;;3.03;1.10;;;;;;;;;;21024960;28;20275;-83
2023/05/13 17:21:49;;;;;;;3.27;1.20;;;;;;;;;;20936410;28;20760;-82
2023/05/13 17:31:52;;;;;;;1.63;1.20;;;;;;;;;;20930060;28;20275;-82
2023/05/13 17:41:53;;;;;;;1.40;1.00;;;;;;;;;;20993177;28;20278;-82
2023/05/13 17:51:55;;;;;;;2.07;1.00;;;;;;;;;;20960189;28;20218;-83
2023/05/13 18:01:57;;;;;;;1.50;0.80;;;;;;;;;;21044829;28;20258;-83
2023/05/13 18:11:59;;;;;;;1.40;1.10;;;;;;;;;;20975382;28;20288;-81
2023/05/13 18:22:01;;;;;;;2.00;1.40;;;;;;;;;;20934330;28;20280;-81
2023/05/13 18:32:04;;;;;;;1.83;1.17;;;;;;;;;;20929578;28;20217;-81
2023/05/13 18:42:06;;;;;;;2.63;1.23;;;;;;;;;;21082172;28;20290;-81
2023/05/13 18:52:08;;;;;;;1.43;1.00;;;;;;;;;;21086996;28;20212;-81
2023/05/13 19:02:13;;;;;;;2.07;1.20;;;;;;;;;;21105891;28;20241;-81
2023/05/13 19:12:17;;;;;;;1.77;1.03;;;;;;;;;;21074297;28;20229;-83
2023/05/13 19:22:20;;;;;;;2.10;1.43;;;;;;;;;;20992219;28;20295;-84
2023/05/13 19:32:21;;;;;;;2.07;1.10;;;;;;;;;;21000387;28;20251;-83
2023/05/13 19:42:23;;;;;;;2.13;1.17;;;;;;;;;;21032441;28;20228;-84
2023/05/13 19:52:25;;;;;;;2.13;1.13;;;;;;;;;;21056316;28;20267;-82
2023/05/13 20:02:29;;;;;;;2.00;1.50;;;;;;;;;;21034460;28;20246;-83
2023/05/13 20:12:31;;;;;;;2.97;1.40;;;;;;;;;;21076522;28;20278;-83
2023/05/13 20:22:33;;;;;;;1.70;1.23;;;;;;;;;;21080313;28;20217;-82
2023/05/13 20:32:36;;;;;;;2.37;1.20;;;;;;;;;;21058253;28;20236;-82
2023/05/13 20:42:40;;;;;;;1.57;1.13;;;;;;;;;;21127104;28;20232;-82
2023/05/13 20:52:42;;;;;;;2.00;1.23;;;;;;;;;;21109634;28;20212;-83
2023/05/13 21:02:47;;;;;;;2.37;1.40;;;;;;;;;;21015264;28;20575;-83
2023/05/13 21:12:57;;;;;;;1.70;1.30;;;;;;;;;;20995938;28;20224;-84
2023/05/13 21:23:00;;;;;;;1.57;1.30;;;;;;;;;;21052985;28;20265;-82
2023/05/13 21:33:02;;;;;;;3.93;1.10;;;;;;;;;;21060965;28;20235;-82
2023/05/13 21:43:04;;;;;;;2.73;1.30;;;;;;;;;;21034882;28;20237;-82
2023/05/13 21:53:05;;;;;;;1.50;1.30;;;;;;;;;;20991009;28;20221;-83
2023/05/13 22:03:07;;;;;;;1.60;1.30;;;;;;;;;;20974131;28;20609;-82
2023/05/13 22:13:09;;;;;;;1.67;1.30;;;;;;;;;;20991664;28;20213;-82
2023/05/13 22:23:10;;;;;;;4.50;1.40;;;;;;;;;;21022832;28;20198;-83
2023/05/13 22:33:12;;;;;;;1.80;1.10;;;;;;;;;;20981953;28;20264;-84
2023/05/13 22:43:14;;;;;;;1.40;1.00;;;;;;;;;;21041018;28;20232;-83
2023/05/13 22:53:17;;;;;;;2.87;1.13;;;;;;;;;;21065226;28;20240;-82
2023/05/13 23:03:18;;;;;;;1.40;0.90;;;;;;;;;;21049087;28;20304;-83
2023/05/13 23:13:20;;;;;;;1.33;0.90;;;;;;;;;;20903712;28;20627;-82
2023/05/13 23:23:22;;;;;;;2.50;1.00;;;;;;;;;;20904006;28;20700;-83
2023/05/13 23:33:23;;;;;;;1.37;0.93;;;;;;;;;;20929961;28;20296;-82
2023/05/13 23:43:25;;;;;;;1.37;1.00;;;;;;;;;;20919559;28;20222;-82
2023/05/13 23:53:27;;;;;;;1.57;0.90;;;;;;;;;;20916227;28;20265;-83
